Terminal Aerodrome Forecast
Issued by NWS Albany, NY

Home | Current Version | Previous Version | Text Only | Print | Product List | Glossary On
Versions: 1 2 3 4 5 6 7 8 9 10 11 12 13 14 15
000
FTUS41 KALY 211138
TAFALB
TAF
KALB 211138Z 2112/2212 VRB03KT P6SM SCT025
     FM211300 29004KT P6SM SCT250
     FM211700 28008KT P6SM FEW250
     FM212000 29012G21KT P6SM FEW250
     FM220000 29009KT P6SM FEW250
     FM220200 28005KT P6SM FEW250=

USA.gov is the U.S. government's official web portal to all federal, state and local government web resources and services.